Time;durP1;ratioP1;P1;durP2;ratioP2;P2;SDS_P1;SDS_P2;PMS_P1;PMS_P2;Temp;Humidity;BMP_temperature;BMP_pressure;BME280_temperature;BME280_humidity;BME280_pressure;Samples;Min_cycle;Max_cycle;Signal;HPM_P1;HPM_P2
2022/01/02 00:00:19;;;;;;;;;;;;;;;14.01;84.03;101323.25;5033754;28;20007;-57
2022/01/02 00:02:50;;;;;;;;;;;;;;;13.99;84.19;101327.19;5033436;28;19921;-57
2022/01/02 00:05:19;;;;;;;;;;;;;;;13.97;84.57;101329.44;5033573;28;19921;-57
2022/01/02 00:07:55;;;;;;;;;;;;;;;13.94;84.57;101318.75;5035620;28;20198;-62
2022/01/02 00:10:23;;;;;;;;;;;;;;;13.93;84.67;101321.88;5032540;28;19927;-57
2022/01/02 00:12:50;;;;;;;;;;;;;;;13.95;85.32;101325.25;5033563;28;20447;-57
2022/01/02 00:15:19;;;;;;;;;;;;;;;13.93;85.49;101328.31;5033538;28;20003;-58
2022/01/02 00:17:49;;;;;;;;;;;;;;;13.89;85.50;101330.03;5033660;28;19939;-58
2022/01/02 00:20:18;;;;;;;;;;;;;;;13.92;85.37;101331.44;5032973;28;20035;-57
2022/01/02 00:22:49;;;;;;;;;;;;;;;13.93;85.40;101327.50;5033597;28;19921;-57
2022/01/02 00:25:28;;;;;;;;;;;;;;;13.93;85.62;101333.09;5033159;28;19967;-58
2022/01/02 00:27:54;;;;;;;;;;;;;;;13.91;85.55;101322.16;5033061;28;20016;-57
2022/01/02 00:30:21;;;;;;;;;;;;;;;13.93;85.90;101327.50;5033070;28;19921;-57
2022/01/02 00:32:48;;;;;;;;;;;;;;;13.93;86.04;101330.28;5031880;28;19967;-58
2022/01/02 00:35:14;;;;;;;;;;;;;;;13.93;86.22;101319.06;5044356;28;20023;-58
2022/01/02 00:37:41;;;;;;;;;;;;;;;13.92;86.21;101329.47;5053082;28;20007;-58
2022/01/02 00:40:13;;;;;;;;;;;;;;;13.93;86.18;101339.56;5046599;28;20028;-58
2022/01/02 00:42:41;;;;;;;;;;;;;;;13.96;86.43;101339.00;5032829;28;20039;-58
2022/01/02 00:45:18;;;;;;;;;;;;;;;14.01;86.56;101351.34;5032987;28;20266;-58
2022/01/02 00:47:50;;;;;;;;;;;;;;;14.06;86.15;101348.53;5033026;28;19933;-58
2022/01/02 00:50:20;;;;;;;;;;;;;;;14.10;86.41;101339.25;5041778;28;19960;-58
2022/01/02 00:52:48;;;;;;;;;;;;;;;14.13;86.34;101343.44;5084580;28;19921;-57
2022/01/02 00:55:19;;;;;;;;;;;;;;;14.18;86.74;101349.03;5052913;28;20349;-57
2022/01/02 00:57:56;;;;;;;;;;;;;;;14.17;86.45;101347.38;5051766;28;20017;-58
2022/01/02 01:00:24;;;;;;;;;;;;;;;14.19;86.69;101347.94;5037417;28;20019;-57
2022/01/02 01:02:53;;;;;;;;;;;;;;;14.20;86.24;101352.41;5039512;28;20007;-58
2022/01/02 01:05:23;;;;;;;;;;;;;;;14.24;86.34;101347.91;5052470;28;19928;-58
2022/01/02 01:07:54;;;;;;;;;;;;;;;14.27;85.91;101355.75;5052861;28;20387;-57
2022/01/02 01:10:22;;;;;;;;;;;;;;;14.30;86.30;101360.81;5051027;28;19972;-57
2022/01/02 01:12:52;;;;;;;;;;;;;;;14.31;86.35;101364.47;5052633;28;20023;-58
2022/01/02 01:15:19;;;;;;;;;;;;;;;14.31;85.94;101359.69;5051646;28;19921;-58
2022/01/02 01:17:47;;;;;;;;;;;;;;;14.33;85.90;101351.81;5038490;28;20262;-58
2022/01/02 01:20:14;;;;;;;;;;;;;;;14.31;85.80;101356.88;5032176;28;20039;-57
2022/01/02 01:22:41;;;;;;;;;;;;;;;14.34;86.40;101349.84;5032499;28;19972;-57
2022/01/02 01:25:13;;;;;;;;;;;;;;;14.30;86.01;101355.19;5032500;28;19957;-57
2022/01/02 01:27:40;;;;;;;;;;;;;;;14.30;86.39;101349.56;5032544;28;20282;-57
2022/01/02 01:30:07;;;;;;;;;;;;;;;14.30;86.45;101343.94;5032139;28;19928;-58
2022/01/02 01:32:36;;;;;;;;;;;;;;;14.30;86.36;101343.94;5032979;28;19957;-57
2022/01/02 01:35:03;;;;;;;;;;;;;;;14.29;86.47;101336.66;5032376;28;19999;-57
2022/01/02 01:37:30;;;;;;;;;;;;;;;14.28;86.74;101345.38;5032129;28;20347;-57
2022/01/02 01:39:57;;;;;;;;;;;;;;;14.28;86.54;101346.19;5040104;28;20452;-56
2022/01/02 01:42:37;;;;;;;;;;;;;;;14.27;86.47;101352.94;5051826;28;19967;-57
2022/01/02 01:47:48;;;;;;;;;;;;;;;14.32;86.40;101361.34;5032535;28;19921;-57
2022/01/02 01:50:15;;;;;;;;;;;;;;;14.33;86.26;101360.25;5032142;28;20007;-57
2022/01/02 01:52:42;;;;;;;;;;;;;;;14.36;86.14;101358.84;5031941;28;19983;-57
2022/01/02 01:55:09;;;;;;;;;;;;;;;14.38;86.15;101371.44;5031930;28;20015;-57
2022/01/02 01:57:38;;;;;;;;;;;;;;;14.38;86.36;101371.44;5031805;28;19979;-57
2022/01/02 02:00:10;;;;;;;;;;;;;;;14.35;86.28;101363.59;5031918;28;20023;-57
2022/01/02 02:02:37;;;;;;;;;;;;;;;14.33;86.25;101368.66;5031822;28;20288;-57
2022/01/02 02:05:05;;;;;;;;;;;;;;;14.31;86.59;101372.88;5032212;28;19921;-57
2022/01/02 02:07:39;;;;;;;;;;;;;;;14.29;86.52;101376.00;5031987;28;20421;-58
2022/01/02 02:10:22;;;;;;;;;;;;;;;14.29;86.55;101376.00;5031754;28;19979;-57
2022/01/02 02:12:50;;;;;;;;;;;;;;;14.27;86.61;101371.78;5031991;28;19971;-57
2022/01/02 02:15:19;;;;;;;;;;;;;;;14.27;86.38;101381.03;5031635;28;19925;-57
2022/01/02 02:17:47;;;;;;;;;;;;;;;14.29;86.40;101390.03;5031632;28;20580;-57
2022/01/02 02:20:24;;;;;;;;;;;;;;;14.35;86.64;101390.84;5042925;28;20000;-57
2022/01/02 02:22:55;;;;;;;;;;;;;;;14.29;86.46;101384.44;5050939;28;19920;-57
2022/01/02 02:25:24;;;;;;;;;;;;;;;14.26;86.51;101387.81;5034063;28;19928;-57
2022/01/02 02:27:51;;;;;;;;;;;;;;;14.24;86.59;101395.66;5031658;28;20007;-57
2022/01/02 02:30:18;;;;;;;;;;;;;;;14.25;86.44;101388.91;5031527;28;20015;-57
2022/01/02 02:32:45;;;;;;;;;;;;;;;14.27;86.55;101394.25;5032098;28;20436;-57
2022/01/02 02:35:13;;;;;;;;;;;;;;;14.27;86.55;101395.09;5035229;28;19960;-58
2022/01/02 02:37:42;;;;;;;;;;;;;;;14.28;86.56;101396.78;5046758;28;20012;-57
2022/01/02 02:40:09;;;;;;;;;;;;;;;14.29;86.72;101404.09;5054326;28;20347;-57
2022/01/02 02:43:04;;;;;;;;;;;;;;;14.27;86.51;101399.88;5055357;28;20360;-57
2022/01/02 02:51:02;;;;;;;;;;;;;;;14.20;87.12;101414.22;5051024;28;19978;-57
2022/01/02 02:53:28;;;;;;;;;;;;;;;14.21;87.15;101418.69;5035338;28;19968;-58
2022/01/02 02:55:58;;;;;;;;;;;;;;;14.19;87.14;101416.19;5035353;28;19928;-58
2022/01/02 02:58:42;;;;;;;;;;;;;;;14.22;87.48;101423.19;5035286;28;20049;-58
2022/01/02 03:01:10;;;;;;;;;;;;;;;14.22;87.30;101426.00;5034970;28;20028;-58
2022/01/02 03:03:38;;;;;;;;;;;;;;;14.22;87.18;101420.38;5035074;28;19921;-58
2022/01/02 03:06:05;;;;;;;;;;;;;;;14.22;87.20;101415.63;5034577;28;20351;-58
2022/01/02 03:08:33;;;;;;;;;;;;;;;14.23;87.49;101427.69;5034813;28;20334;-58
2022/01/02 03:11:00;;;;;;;;;;;;;;;14.22;87.58;101421.25;5034663;28;19968;-58
2022/01/02 03:13:26;;;;;;;;;;;;;;;14.22;87.75;101426.88;5035320;28;20016;-58
2022/01/02 03:15:53;;;;;;;;;;;;;;;14.25;87.50;101417.00;5034668;28;20015;-58
2022/01/02 03:18:20;;;;;;;;;;;;;;;14.26;87.49;101415.91;5034757;28;19994;-58
2022/01/02 03:20:46;;;;;;;;;;;;;;;14.26;87.65;101427.13;5034695;28;20389;-58
2022/01/02 03:23:13;;;;;;;;;;;;;;;14.27;87.39;101423.19;5034333;28;19975;-58
2022/01/02 03:25:40;;;;;;;;;;;;;;;14.34;87.38;101434.97;5034079;28;19963;-58
2022/01/02 03:28:07;;;;;;;;;;;;;;;14.38;87.27;101424.84;5034320;28;20007;-58
2022/01/02 03:30:34;;;;;;;;;;;;;;;14.39;87.21;101420.94;5034881;28;19964;-58
2022/01/02 03:33:02;;;;;;;;;;;;;;;14.40;87.17;101418.94;5034289;28;19972;-58
2022/01/02 03:35:28;;;;;;;;;;;;;;;14.41;87.31;101417.81;5034303;28;20024;-58
2022/01/02 03:37:55;;;;;;;;;;;;;;;14.40;87.29;101413.34;5034045;28;19968;-59
2022/01/02 03:40:23;;;;;;;;;;;;;;;14.38;87.29;101413.59;5034093;28;20016;-58
2022/01/02 03:42:49;;;;;;;;;;;;;;;14.37;87.37;101420.34;5034055;28;20043;-58
2022/01/02 03:45:16;;;;;;;;;;;;;;;14.36;87.33;101426.28;5033596;28;20007;-58
2022/01/02 03:47:43;;;;;;;;;;;;;;;14.38;87.52;101418.38;5035023;28;19921;-58
2022/01/02 03:50:11;;;;;;;;;;;;;;;14.40;87.18;101428.22;5040739;28;19920;-58
2022/01/02 03:52:38;;;;;;;;;;;;;;;14.41;87.33;101426.25;5049426;28;20104;-57
2022/01/02 03:55:06;;;;;;;;;;;;;;;14.41;87.35;101413.03;5049277;28;20310;-57
2022/01/02 03:57:33;;;;;;;;;;;;;;;14.40;87.34;101416.97;5034235;28;19927;-58
2022/01/02 03:59:59;;;;;;;;;;;;;;;14.38;87.48;101413.59;5033724;28;20328;-57
2022/01/02 04:02:26;;;;;;;;;;;;;;;14.35;87.61;101414.16;5048148;28;20360;-58
2022/01/02 04:04:53;;;;;;;;;;;;;;;14.33;87.70;101421.22;5033671;28;19925;-57
2022/01/02 04:07:20;;;;;;;;;;;;;;;14.33;87.77;101422.06;5033499;28;19983;-57
2022/01/02 04:09:46;;;;;;;;;;;;;;;14.32;87.84;101419.50;5033773;28;19983;-57
2022/01/02 04:12:13;;;;;;;;;;;;;;;14.30;87.51;101416.16;5033464;28;19921;-57
2022/01/02 04:14:39;;;;;;;;;;;;;;;14.29;87.70;101415.34;5033225;28;19932;-57
2022/01/02 04:17:06;;;;;;;;;;;;;;;14.29;87.63;101420.09;5033400;28;20021;-57
2022/01/02 04:19:33;;;;;;;;;;;;;;;14.30;87.62;101419.81;5033629;28;20007;-57
2022/01/02 04:22:00;;;;;;;;;;;;;;;14.32;87.53;101425.13;5033741;28;19964;-57
2022/01/02 04:24:26;;;;;;;;;;;;;;;14.35;87.56;101424.56;5033152;28;20016;-57
2022/01/02 04:26:53;;;;;;;;;;;;;;;14.37;87.43;101417.53;5033506;28;20011;-57
2022/01/02 04:29:20;;;;;;;;;;;;;;;14.39;87.21;101420.06;5033039;28;20004;-57
2022/01/02 04:31:47;;;;;;;;;;;;;;;14.38;87.26;101422.03;5046550;28;20000;-57
2022/01/02 04:34:14;;;;;;;;;;;;;;;14.37;87.26;101417.53;5032884;28;19964;-57
2022/01/02 04:36:40;;;;;;;;;;;;;;;14.33;87.10;101424.03;5033519;28;20012;-57
2022/01/02 04:39:08;;;;;;;;;;;;;;;14.32;87.14;101413.91;5033659;28;19964;-56
2022/01/02 04:41:34;;;;;;;;;;;;;;;14.32;87.16;101420.34;5033150;28;19927;-56
2022/01/02 04:44:01;;;;;;;;;;;;;;;14.33;86.96;101416.44;5032443;28;20024;-56
2022/01/02 04:46:28;;;;;;;;;;;;;;;14.34;86.96;101420.09;5032983;28;20000;-56
2022/01/02 04:48:54;;;;;;;;;;;;;;;14.35;87.02;101422.59;5032841;28;19921;-56
2022/01/02 04:51:21;;;;;;;;;;;;;;;14.37;87.00;101417.53;5036312;28;19920;-57
2022/01/02 04:53:49;;;;;;;;;;;;;;;14.36;86.68;101413.06;5034999;28;20008;-56
2022/01/02 04:56:16;;;;;;;;;;;;;;;14.37;86.84;101422.31;5046748;28;20008;-55
2022/01/02 04:58:43;;;;;;;;;;;;;;;14.36;86.83;101420.66;5034670;28;19921;-56
2022/01/02 05:01:14;;;;;;;;;;;;;;;14.34;86.71;101428.50;5033029;28;19996;-57
2022/01/02 05:03:41;;;;;;;;;;;;;;;14.31;86.64;101432.72;5041271;28;19959;-57
2022/01/02 05:06:08;;;;;;;;;;;;;;;14.33;86.79;101432.47;5031271;28;19928;-57
2022/01/02 05:08:37;;;;;;;;;;;;;;;14.33;86.72;101433.28;5032485;28;20436;-57
2022/01/02 05:11:03;;;;;;;;;;;;;;;14.34;86.68;101440.59;5032286;28;20019;-56
2022/01/02 05:13:30;;;;;;;;;;;;;;;14.35;86.61;101450.69;5033026;28;20415;-58
2022/01/02 05:15:58;;;;;;;;;;;;;;;14.36;86.76;101455.22;5032851;28;20008;-57
2022/01/02 05:18:24;;;;;;;;;;;;;;;14.35;86.51;101466.72;5032465;28;19928;-57
2022/01/02 05:20:51;;;;;;;;;;;;;;;14.36;86.62;101471.22;5032325;28;19972;-57
2022/01/02 05:23:19;;;;;;;;;;;;;;;14.39;86.43;101465.00;5032609;28;20246;-57
2022/01/02 05:25:45;;;;;;;;;;;;;;;14.40;86.44;101466.72;5032007;28;20015;-57
2022/01/02 05:28:12;;;;;;;;;;;;;;;14.37;86.31;101462.50;5031963;28;19921;-57
2022/01/02 05:30:40;;;;;;;;;;;;;;;14.37;86.38;101468.13;5032974;28;19927;-57
2022/01/02 05:33:07;;;;;;;;;;;;;;;14.37;86.40;101473.75;5032387;28;19975;-57
2022/01/02 05:35:34;;;;;;;;;;;;;;;14.37;86.43;101468.13;5032205;28;19975;-57
2022/01/02 05:38:01;;;;;;;;;;;;;;;14.39;86.49;101465.88;5032342;28;20024;-58
2022/01/02 05:40:32;;;;;;;;;;;;;;;14.37;86.24;101462.50;5032037;28;19921;-57
2022/01/02 05:42:59;;;;;;;;;;;;;;;14.35;86.33;101464.75;5032281;28;20321;-57
2022/01/02 05:45:26;;;;;;;;;;;;;;;14.35;86.36;101470.38;5032545;28;19921;-60
2022/01/02 05:47:53;;;;;;;;;;;;;;;14.33;86.39;101475.44;5032283;28;20027;-57
2022/01/02 05:50:20;;;;;;;;;;;;;;;14.36;86.39;101480.50;5032185;28;19977;-57
2022/01/02 05:52:47;;;;;;;;;;;;;;;14.37;86.26;101490.59;5039098;28;20420;-58
2022/01/02 05:55:13;;;;;;;;;;;;;;;14.37;86.28;101484.97;5032038;28;20015;-57
2022/01/02 05:57:40;;;;;;;;;;;;;;;14.38;86.19;101474.59;5032232;28;19921;-56
2022/01/02 06:00:08;;;;;;;;;;;;;;;14.34;86.16;101477.13;5034817;28;20373;-57
2022/01/02 06:02:34;;;;;;;;;;;;;;;14.33;86.10;101488.66;5049564;28;20015;-57
2022/01/02 06:05:02;;;;;;;;;;;;;;;14.26;86.03;101483.31;5032019;28;20288;-56
2022/01/02 06:07:32;;;;;;;;;;;;;;;14.22;86.09;101482.19;5033830;28;20443;-57
2022/01/02 06:10:00;;;;;;;;;;;;;;;14.21;86.21;101486.13;5035940;28;20443;-56
2022/01/02 06:12:26;;;;;;;;;;;;;;;14.20;86.02;101495.69;5035621;28;19925;-57
2022/01/02 06:14:53;;;;;;;;;;;;;;;14.19;85.91;101494.00;5035747;28;19967;-57
2022/01/02 06:17:20;;;;;;;;;;;;;;;14.15;85.98;101492.88;5036651;28;20015;-56
2022/01/02 06:19:46;;;;;;;;;;;;;;;14.17;86.08;101501.88;5055218;28;19921;-57
2022/01/02 06:22:13;;;;;;;;;;;;;;;14.18;86.22;101493.13;5055338;28;20011;-56
2022/01/02 06:24:39;;;;;;;;;;;;;;;14.13;86.03;101497.94;5055339;28;20011;-56
2022/01/02 06:27:06;;;;;;;;;;;;;;;14.13;86.11;101495.13;5039112;28;20325;-56
2022/01/02 06:29:33;;;;;;;;;;;;;;;14.11;86.05;101502.97;5035520;28;19967;-56
2022/01/02 06:32:00;;;;;;;;;;;;;;;14.09;85.93;101496.81;5035724;28;20004;-57
2022/01/02 06:34:27;;;;;;;;;;;;;;;14.08;85.95;101503.53;5034485;28;20311;-57
2022/01/02 06:36:54;;;;;;;;;;;;;;;14.07;85.92;101502.69;5036131;28;20074;-56
2022/01/02 06:39:21;;;;;;;;;;;;;;;14.08;85.88;101504.38;5035308;28;19932;-56
2022/01/02 06:41:47;;;;;;;;;;;;;;;14.08;85.96;101509.16;5035162;28;20284;-58
2022/01/02 06:44:14;;;;;;;;;;;;;;;14.05;85.83;101512.53;5035024;28;19991;-56
2022/01/02 06:46:41;;;;;;;;;;;;;;;14.07;86.03;101519.56;5035029;28;20017;-56
2022/01/02 06:49:08;;;;;;;;;;;;;;;14.07;85.82;101507.47;5034902;28;20000;-55
2022/01/02 06:51:46;;;;;;;;;;;;;;;14.06;85.80;101514.22;5035091;28;19979;-55
2022/01/02 06:54:13;;;;;;;;;;;;;;;14.04;85.98;101519.28;5035556;28;20003;-54
2022/01/02 06:56:40;;;;;;;;;;;;;;;13.99;85.88;101520.13;5035205;28;20028;-55
2022/01/02 06:59:06;;;;;;;;;;;;;;;13.96;85.84;101524.31;5035060;28;20004;-55
2022/01/02 07:01:33;;;;;;;;;;;;;;;13.92;85.97;101533.59;5034769;28;20003;-55
2022/01/02 07:04:01;;;;;;;;;;;;;;;13.93;85.91;101546.50;5034960;28;20316;-55
2022/01/02 07:06:27;;;;;;;;;;;;;;;13.95;85.93;101547.94;5047767;28;20268;-54
2022/01/02 07:08:54;;;;;;;;;;;;;;;13.97;85.80;101565.31;5042212;28;19956;-55
2022/01/02 07:11:21;;;;;;;;;;;;;;;14.00;85.86;101569.53;5035511;28;20028;-54
2022/01/02 07:13:47;;;;;;;;;;;;;;;14.07;85.88;101569.28;5034984;28;20438;-54
2022/01/02 07:16:14;;;;;;;;;;;;;;;14.09;85.61;101567.03;5034478;28;20373;-55
2022/01/02 07:18:44;;;;;;;;;;;;;;;14.05;85.48;101566.75;5046043;28;20003;-54
2022/01/02 07:21:11;;;;;;;;;;;;;;;14.04;85.58;101556.63;5054327;28;20008;-55
2022/01/02 07:23:37;;;;;;;;;;;;;;;14.03;85.60;101562.53;5054270;28;20459;-54
2022/01/02 07:26:06;;;;;;;;;;;;;;;14.00;85.65;101558.31;5054063;28;19927;-55
2022/01/02 07:28:33;;;;;;;;;;;;;;;13.95;85.75;101550.72;5041753;28;20381;-54
2022/01/02 07:31:01;;;;;;;;;;;;;;;13.89;85.89;101535.00;5034661;28;20032;-53
2022/01/02 07:33:30;;;;;;;;;;;;;;;13.85;85.72;101527.41;5034315;28;20007;-55
2022/01/02 07:35:57;;;;;;;;;;;;;;;13.77;85.77;101536.38;5034472;28;20260;-55
2022/01/02 07:38:30;;;;;;;;;;;;;;;13.76;85.78;101549.56;5034644;28;19928;-55
2022/01/02 07:40:57;;;;;;;;;;;;;;;13.79;85.80;101557.44;5034359;28;20337;-54
2022/01/02 07:43:23;;;;;;;;;;;;;;;13.82;85.75;101562.50;5034022;28;19964;-55
2022/01/02 07:45:50;;;;;;;;;;;;;;;13.81;85.52;101565.56;5047504;28;19974;-54
2022/01/02 07:48:17;;;;;;;;;;;;;;;13.74;85.86;101565.84;5054344;28;19924;-55
2022/01/02 07:50:44;;;;;;;;;;;;;;;13.68;86.05;101569.78;5043207;28;20015;-55
2022/01/02 07:53:10;;;;;;;;;;;;;;;13.63;86.33;101559.34;5052341;28;20003;-53
2022/01/02 07:55:37;;;;;;;;;;;;;;;13.63;86.90;101558.53;5053720;28;19976;-55
2022/01/02 07:58:04;;;;;;;;;;;;;;;13.62;86.86;101562.44;5042080;28;19921;-56
2022/01/02 08:00:30;;;;;;;;;;;;;;;13.62;86.97;101568.06;5033772;28;19972;-55
2022/01/02 08:02:58;;;;;;;;;;;;;;;13.60;87.01;101567.50;5034353;28;20007;-55
2022/01/02 08:05:24;;;;;;;;;;;;;;;13.58;87.02;101567.78;5033522;28;20023;-56
2022/01/02 08:07:51;;;;;;;;;;;;;;;13.56;86.98;101571.97;5033627;28;20016;-55
2022/01/02 08:10:19;;;;;;;;;;;;;;;13.55;86.90;101573.09;5035683;28;19975;-55
2022/01/02 08:12:45;;;;;;;;;;;;;;;13.52;86.86;101569.72;5051711;28;20035;-60
2022/01/02 08:15:12;;;;;;;;;;;;;;;13.50;87.02;101569.16;5033790;28;20008;-55
2022/01/02 08:17:40;;;;;;;;;;;;;;;13.49;87.00;101569.44;5033158;28;19921;-55
2022/01/02 08:20:07;;;;;;;;;;;;;;;13.46;87.12;101576.41;5052360;28;19944;-55
2022/01/02 08:22:33;;;;;;;;;;;;;;;13.46;87.12;101582.03;5053280;28;20000;-54
2022/01/02 08:25:00;;;;;;;;;;;;;;;13.50;87.03;101576.72;5052973;28;20007;-55
2022/01/02 08:27:27;;;;;;;;;;;;;;;13.58;87.15;101567.78;5052891;28;19999;-55
2022/01/02 08:29:54;;;;;;;;;;;;;;;13.65;87.07;101578.75;5052301;28;20035;-55
2022/01/02 08:32:22;;;;;;;;;;;;;;;13.71;86.95;101577.66;5053086;28;20003;-56
2022/01/02 08:34:52;;;;;;;;;;;;;;;13.80;87.00;101587.19;5053106;28;19932;-56
2022/01/02 08:37:18;;;;;;;;;;;;;;;13.86;86.66;101586.09;5052177;28;20032;-56
2022/01/02 08:39:45;;;;;;;;;;;;;;;13.92;86.50;101590.59;5033167;28;19972;-55
2022/01/02 08:42:13;;;;;;;;;;;;;;;13.98;86.57;101586.69;5032962;28;20023;-56
2022/01/02 08:44:41;;;;;;;;;;;;;;;14.02;86.25;101592.59;5032863;28;19921;-56
2022/01/02 08:47:08;;;;;;;;;;;;;;;14.09;86.31;101584.72;5039863;28;19921;-56
2022/01/02 08:49:35;;;;;;;;;;;;;;;14.17;86.32;101600.19;5053046;28;19994;-54
2022/01/02 08:52:02;;;;;;;;;;;;;;;14.24;86.28;101597.94;5047780;28;19999;-56
2022/01/02 08:54:29;;;;;;;;;;;;;;;14.30;86.16;101613.69;5034996;28;20007;-55
2022/01/02 08:56:55;;;;;;;;;;;;;;;14.39;86.23;101628.88;5032717;28;20096;-62
2022/01/02 08:59:24;;;;;;;;;;;;;;;14.52;86.03;101629.44;5032928;28;19924;-56
2022/01/02 09:01:52;;;;;;;;;;;;;;;14.59;86.02;101615.97;5032823;28;19932;-56
2022/01/02 09:04:19;;;;;;;;;;;;;;;14.63;85.66;101622.69;5032625;28;19967;-57
2022/01/02 09:06:46;;;;;;;;;;;;;;;14.63;85.56;101623.56;5031530;28;19963;-60
2022/01/02 09:09:13;;;;;;;;;;;;;;;14.74;86.03;101634.81;5032835;28;20345;-57
2022/01/02 09:11:39;;;;;;;;;;;;;;;14.89;85.91;101646.03;5033338;28;19948;-56
2022/01/02 09:14:06;;;;;;;;;;;;;;;15.00;85.65;101644.03;5032369;28;20011;-55
2022/01/02 09:16:34;;;;;;;;;;;;;;;15.07;85.68;101650.22;5042341;28;20015;-56
2022/01/02 09:19:00;;;;;;;;;;;;;;;15.10;85.23;101653.31;5052236;28;20456;-56
2022/01/02 09:21:27;;;;;;;;;;;;;;;15.04;85.41;101667.66;5052251;28;19972;-55
2022/01/02 09:23:54;;;;;;;;;;;;;;;15.02;85.47;101667.13;5042739;28;20262;-55
2022/01/02 09:26:20;;;;;;;;;;;;;;;14.98;85.38;101674.44;5032814;28;19975;-55
2022/01/02 09:28:47;;;;;;;;;;;;;;;14.94;85.39;101668.53;5032312;28;20012;-55
2022/01/02 09:31:14;;;;;;;;;;;;;;;14.88;85.17;101645.19;5032209;28;20015;-55
2022/01/02 09:33:40;;;;;;;;;;;;;;;14.83;85.35;101656.44;5032294;28;20027;-55
2022/01/02 09:36:07;;;;;;;;;;;;;;;14.79;85.27;101662.91;5032146;28;20453;-56
2022/01/02 09:38:34;;;;;;;;;;;;;;;14.79;85.44;101682.59;5038096;28;20015;-56
2022/01/02 09:41:00;;;;;;;;;;;;;;;14.84;85.40;101688.22;5052577;28;20045;-55
2022/01/02 09:43:27;;;;;;;;;;;;;;;14.92;85.43;101696.94;5057550;28;19979;-55
2022/01/02 09:45:54;;;;;;;;;;;;;;;14.96;85.29;101705.66;5040393;28;20012;-54
2022/01/02 09:48:21;;;;;;;;;;;;;;;14.93;85.33;101711.84;5038612;28;20273;-55
2022/01/02 09:50:48;;;;;;;;;;;;;;;14.92;85.05;101721.41;5038968;28;19921;-58
2022/01/02 09:53:16;;;;;;;;;;;;;;;14.90;85.24;101727.28;5038320;28;19963;-57
2022/01/02 09:55:42;;;;;;;;;;;;;;;14.90;85.32;101758.22;5039220;28;20326;-56
2022/01/02 09:58:11;;;;;;;;;;;;;;;14.92;85.48;101757.97;5038538;28;19928;-56
2022/01/02 10:00:46;;;;;;;;;;;;;;;14.97;85.20;101774.00;5039330;28;19956;-55
2022/01/02 10:03:14;;;;;;;;;;;;;;;14.96;85.43;101773.16;5038522;28;20361;-56
2022/01/02 10:05:59;;;;;;;;;;;;;;;14.99;85.65;101771.75;5038181;28;19921;-56
2022/01/02 10:08:35;;;;;;;;;;;;;;;15.07;85.58;101772.03;5049694;28;20432;-56
2022/01/02 10:11:04;;;;;;;;;;;;;;;15.20;85.50;101767.81;5058202;28;19968;-56
2022/01/02 10:13:40;;;;;;;;;;;;;;;15.27;85.59;101750.63;5053845;28;19921;-56
2022/01/02 10:16:27;;;;;;;;;;;;;;;15.26;85.39;101740.53;5038300;28;20012;-56
2022/01/02 10:18:55;;;;;;;;;;;;;;;15.22;85.38;101731.81;5038859;28;20043;-56
2022/01/02 10:21:35;;;;;;;;;;;;;;;15.08;84.67;101731.53;5045856;28;20424;-56
2022/01/02 10:24:21;;;;;;;;;;;;;;;15.03;84.86;101739.13;5058532;28;19924;-56
2022/01/02 10:27:08;;;;;;;;;;;;;;;14.92;84.97;101736.31;5057969;28;19972;-55
2022/01/02 10:29:43;;;;;;;;;;;;;;;14.89;84.72;101738.84;5044189;28;19971;-56
2022/01/02 10:32:28;;;;;;;;;;;;;;;14.88;84.58;101740.81;5038428;28;20058;-56
2022/01/02 10:35:13;;;;;;;;;;;;;;;14.81;84.48;101740.25;5038838;28;19948;-56
2022/01/02 10:37:41;;;;;;;;;;;;;;;14.81;84.42;101757.13;5038334;28;20019;-55
2022/01/02 10:40:26;;;;;;;;;;;;;;;14.78;83.99;101756.84;5037988;28;20019;-56
2022/01/02 10:42:53;;;;;;;;;;;;;;;14.74;84.12;101752.91;5038110;28;20027;-56
2022/01/02 10:45:30;;;;;;;;;;;;;;;14.73;84.19;101746.41;5038244;28;20011;-56
2022/01/02 10:47:57;;;;;;;;;;;;;;;14.81;83.86;101747.84;5038191;28;19943;-56
2022/01/02 10:50:34;;;;;;;;;;;;;;;14.90;83.96;101741.34;5038059;28;20435;-57
2022/01/02 10:53:11;;;;;;;;;;;;;;;14.88;83.11;101746.44;5049682;28;19964;-56
2022/01/02 10:55:38;;;;;;;;;;;;;;;14.72;83.31;101727.84;5053716;28;20016;-55
2022/01/02 10:58:07;;;;;;;;;;;;;;;14.67;83.60;101728.72;5035247;28;20339;-55
2022/01/02 11:00:34;;;;;;;;;;;;;;;14.68;83.81;101736.00;5035074;28;20015;-55
2022/01/02 11:03:04;;;;;;;;;;;;;;;14.75;83.75;101738.56;5034804;28;20032;-56
2022/01/02 11:05:33;;;;;;;;;;;;;;;14.77;83.15;101733.50;5034539;28;19948;-55
2022/01/02 11:08:00;;;;;;;;;;;;;;;14.72;83.31;101727.84;5034774;28;20012;-53
2022/01/02 11:10:28;;;;;;;;;;;;;;;14.71;83.09;101733.78;5035735;28;19927;-55
2022/01/02 11:12:55;;;;;;;;;;;;;;;14.75;82.93;101732.94;5034641;28;19920;-57
2022/01/02 11:15:23;;;;;;;;;;;;;;;14.86;82.83;101728.16;5034578;28;20008;-55
2022/01/02 11:17:51;;;;;;;;;;;;;;;15.05;83.20;101731.25;5034563;28;19928;-55
2022/01/02 11:20:22;;;;;;;;;;;;;;;15.22;82.60;101712.09;5034463;28;20832;-55
2022/01/02 11:23:07;;;;;;;;;;;;;;;15.25;82.34;101722.78;5034525;28;19983;-53
2022/01/02 11:25:52;;;;;;;;;;;;;;;15.57;81.83;101727.22;5034970;28;20335;-55
2022/01/02 11:28:42;;;;;;;;;;;;;;;15.83;81.39;101706.34;5051363;28;20364;-55
2022/01/02 11:31:27;;;;;;;;;;;;;;;17.00;83.11;101715.19;5055809;28;19931;-55
2022/01/02 11:33:54;;;;;;;;;;;;;;;18.08;77.18;101712.88;5050549;28;20360;-56
2022/01/02 11:36:34;;;;;;;;;;;;;;;18.00;76.82;101724.88;5034319;28;19921;-55
2022/01/02 11:39:05;;;;;;;;;;;;;;;17.49;75.48;101731.09;5034362;28;19921;-53
2022/01/02 11:41:38;;;;;;;;;;;;;;;17.09;75.51;101724.69;5034087;28;19972;-54
2022/01/02 11:44:06;;;;;;;;;;;;;;;16.71;75.69;101729.22;5034615;28;20011;-55
2022/01/02 11:46:35;;;;;;;;;;;;;;;16.54;75.36;101723.97;5033993;28;19983;-56
2022/01/02 11:49:13;;;;;;;;;;;;;;;16.93;75.50;101723.16;5034173;28;19980;-54
2022/01/02 11:51:49;;;;;;;;;;;;;;;17.21;74.88;101722.34;5040642;28;20363;-55
2022/01/02 11:54:48;;;;;;;;;;;;;;;17.81;74.24;101701.38;5054061;28;20023;-54
2022/01/02 11:57:18;;;;;;;;;;;;;;;17.91;74.41;101706.88;5056188;28;19960;-54
2022/01/02 11:59:45;;;;;;;;;;;;;;;18.27;72.22;101714.91;5052556;28;20382;-54
2022/01/02 12:02:32;;;;;;;;;;;;;;;17.91;71.12;101715.38;5053959;28;19924;-54
2022/01/02 12:05:12;;;;;;;;;;;;;;;17.61;71.87;101702.44;5045097;28;19928;-53
2022/01/02 12:07:45;;;;;;;;;;;;;;;18.36;71.09;101694.13;5033514;28;19921;-53
2022/01/02 12:15:24;;;;;;;;;;;;;;;21.83;64.20;101696.25;5033473;28;20012;-56
2022/01/02 12:18:03;;;;;;;;;;;;;;;21.74;62.85;101687.69;5034028;28;20012;-55
2022/01/02 12:20:49;;;;;;;;;;;;;;;21.75;64.15;101693.06;5033383;28;20008;-56
2022/01/02 12:23:34;;;;;;;;;;;;;;;22.86;63.80;101681.31;5033417;28;19921;-55
2022/01/02 12:26:02;;;;;;;;;;;;;;;23.94;61.50;101686.91;5032739;28;19921;-56
2022/01/02 12:28:36;;;;;;;;;;;;;;;24.04;58.37;101683.66;5033317;28;20392;-54
2022/01/02 12:31:04;;;;;;;;;;;;;;;24.05;59.57;101679.63;5035147;28;20020;-55
2022/01/02 12:33:31;;;;;;;;;;;;;;;24.70;60.59;101674.44;5051551;28;19920;-57
2022/01/02 12:36:07;;;;;;;;;;;;;;;24.91;58.49;101657.28;5033133;28;19972;-57
2022/01/02 12:38:52;;;;;;;;;;;;;;;24.52;56.87;101650.09;5033365;28;19975;-56
2022/01/02 12:41:20;;;;;;;;;;;;;;;24.17;55.90;101650.34;5032928;28;20019;-56
2022/01/02 12:43:57;;;;;;;;;;;;;;;23.95;56.39;101640.06;5033140;28;20007;-56
2022/01/02 12:46:31;;;;;;;;;;;;;;;24.28;58.01;101640.19;5033034;28;20008;-56
2022/01/02 12:48:59;;;;;;;;;;;;;;;24.34;56.90;101638.78;5046804;28;19927;-56
2022/01/02 12:51:32;;;;;;;;;;;;;;;23.35;57.08;101630.63;5043670;28;20011;-56
2022/01/02 12:53:59;;;;;;;;;;;;;;;23.22;57.91;101631.69;5032642;28;20024;-55
2022/01/02 12:56:32;;;;;;;;;;;;;;;22.51;57.52;101619.91;5033012;28;19921;-56
2022/01/02 12:59:19;;;;;;;;;;;;;;;21.39;58.20;101619.34;5048244;28;20007;-56